• Join FlightAware (Why Join?)
  • Login
  • US Flag 
05:59PM EDT


 

Airport Tracker/Info


-or-


 

Live Flight TrackerFlight Track Log ✈ UAL3740 ✈ 11-Jul-2013 ✈ KPVD - KIAD

Flight Track Log - Related Links

Times and Time Zones

All times are in EDT time to prevent confusion due to time zone crossing. See the UAL3740 flight status page for this flight to view local times or setup timezone preferences in your user account.

Time Position Orientation Groundspeed Altitude Reporting Facility
EDT Latitude Longitude Course Direction KTS MPH feet Rate Location/Type
10:12AM 41.8275 -71.4900 331° Northwest 229 264 4,500  Level Boston Center
10:13AM 41.8572 -71.5761 295° West 241 277 8,000 3,000 Climbing Boston Center
10:14AM 41.8914 -71.6619 298° West 259 298 10,600 2,100 Climbing Boston Center
10:15AM 41.9253 -71.7564 296° West 259 298 12,200 1,740 Climbing Boston Center
10:16AM 41.9614 -71.8650 294° West 305 351 14,100 1,800 Climbing Boston Center
10:17AM 41.9889 -71.9819 288° West 332 382 15,900 1,560 Climbing Boston Center
10:18AM 42.0164 -72.1047 287° West 346 398 17,300 1,500 Climbing Boston Center
10:19AM 42.0458 -72.2219 289° West 351 404 18,900 1,440 Climbing Boston Center
10:20AM 42.0794 -72.3617 288° West 358 412 20,500 1,320 Climbing Boston Center
10:21AM 42.1128 -72.5128 287° West 358 412 21,900 1,200 Climbing Boston Center
10:22AM 42.1439 -72.6444 288° West 364 419 22,900 960 Climbing Boston Center
10:23AM 42.1289 -72.7733 261° West 357 411 23,900 900 Climbing Boston Center
10:24AM 42.0767 -72.8625 232° Southwest 345 397 24,700 960 Climbing Boston Center
10:25AM 41.9967 -72.9989 232° Southwest 373 429 25,900 1,080 Climbing Boston Center
10:26AM 41.9317 -73.1097 232° Southwest 386 444 26,900 900 Climbing Boston Center
10:27AM 41.8683 -73.2178 232° Southwest 386 444 27,700 540 Climbing Boston Center
10:28AM 41.8031 -73.3286 232° Southwest 386 444 28,200 480 Climbing Boston Center
10:29AM 41.7206 -73.4664 231° Southwest 393 452 28,800 540 Climbing Boston Center
10:30AM 41.6483 -73.5875 231° Southwest 405 466 29,300 600 Climbing Boston Center
10:31AM 41.5933 -73.6808 232° Southwest 410 472 30,100 960 Climbing Boston Center
10:33AM 41.4861 -73.8369 228° Southwest 410 472 31,600 780 Climbing New York Center
10:34AM 41.3906 -73.9069 209° Southwest 397 457 32,000 180 Climbing New York Center
10:35AM 41.3092 -73.9944 219° Southwest 397 457 32,000  Level New York Center
10:36AM 41.2375 -74.1014 228° Southwest 392 451 32,000  Level New York Center
10:37AM 41.1617 -74.2078 227° Southwest 392 451 32,000 -180 Level New York Center
10:38AM 41.0897 -74.3142 228° Southwest 397 457 31,700 -900 Descending New York Center
10:39AM 41.0175 -74.4258 229° Southwest 397 457 30,200 -1,500 Descending New York Center
10:40AM 40.9411 -74.5344 227° Southwest 402 463 28,700 -1,140 Descending New York Center
10:41AM 40.8853 -74.6547 238° Southwest 402 463 28,000 -360 Descending New York Center
10:42AM 40.8331 -74.7833 242° Southwest 397 457 28,000  Level New York Center
10:43AM 40.7744 -74.9089 238° Southwest 402 463 28,000  Level New York Center
10:44AM 40.7178 -75.0367 240° Southwest 407 468 28,000  Level New York Center
10:45AM 40.6589 -75.1644 239° Southwest 407 468 28,000 -720 Level New York Center
10:46AM 40.5981 -75.2917 238° Southwest 415 478 26,600 -1,500 Descending New York Center
10:47AM 40.5433 -75.4111 239° Southwest 402 463 25,100 -1,560 Descending New York Center
10:48AM 40.4867 -75.5272 237° Southwest 390 449 23,600 -1,500 Descending New York Center
10:49AM 40.4339 -75.6436 239° Southwest 385 443 22,100 -1,500 Descending New York Center
10:50AM 40.3814 -75.7517 237° Southwest 373 429 20,600 -1,080 Descending New York Center
10:51AM 40.3286 -75.8650 239° Southwest 368 423 20,000 -300 Descending New York Center
10:52AM 40.2650 -75.9881 236° Southwest 384 442 20,000 -120 Level New York Center
10:53AM 40.2031 -76.1139 237° Southwest 404 465 19,800 -960 Descending New York Center
10:54AM 40.1000 -76.3333 239° Southwest 414 476 17,700 -1,320 Descending Potomac TRACON
10:55AM 40.0500 -76.4500 241° Southwest 414 476 16,400 -1,260 Descending Potomac TRACON
10:56AM 39.9833 -76.5833 237° Southwest 404 465 15,200 -780 Descending Potomac TRACON
10:57AM 39.9333 -76.7000 241° Southwest 398 458 15,000 -120 Descending Potomac TRACON
10:58AM 39.8833 -76.8167 241° Southwest 403 464 15,000  Level Potomac TRACON
10:59AM 39.8167 -76.9333 233° Southwest 399 459 15,000  Level Potomac TRACON
11:00AM 39.7833 -77.0333 247° West 351 404 15,000 -780 Level Potomac TRACON
11:01AM 39.7333 -77.1333 237° Southwest 300 345 13,600 -1,620 Descending Potomac TRACON
11:02AM 39.6833 -77.2167 232° Southwest 287 330 11,800 -1,860 Descending Potomac TRACON
11:03AM 39.6500 -77.3000 243° Southwest 280 322 9,900 -1,740 Descending Potomac TRACON
11:04AM 39.6000 -77.3667 226° Southwest 264 304 8,400 -1,500 Descending Potomac TRACON
11:05AM 39.5667 -77.4500 243° Southwest 237 273 6,900 -1,260 Descending Potomac TRACON
11:06AM 39.5333 -77.5000 229° Southwest 247 284 5,900 -1,260 Descending Potomac TRACON
11:07AM 39.4667 -77.4667 159° South 256 295 4,400 -1,020 Descending Potomac TRACON
11:08AM 39.4000 -77.4333 159° South 264 304 4,000 -240 Descending Potomac TRACON
11:09AM 39.3333 -77.4000 159° South 256 295 4,000  Level Potomac TRACON
11:10AM 39.2667 -77.3667 159° South 254 292 4,000  Level Potomac TRACON
11:11AM 39.2000 -77.3667 180° South 254 292 4,000  Level Potomac TRACON
11:12AM 39.1333 -77.3667 180° South 251 289 4,000  Level Potomac TRACON
11:13AM 39.0667 -77.3667 180° South 251 289 4,000  Level Potomac TRACON
11:14AM 39.0000 -77.3500 169° South 250 288 4,000  Level Potomac TRACON
11:15AM 38.9333 -77.3500 180° South 259 298 4,000  Level Potomac TRACON
11:16AM 38.8667 -77.3667 191° South 212 244 4,000  Level Potomac TRACON
11:17AM 38.8000 -77.3667 180° South 208 239 4,000 -300 Level Potomac TRACON
11:18AM 38.7500 -77.3667 180° South 206 237 3,500 -720 Descending Potomac TRACON
11:19AM 38.7333 -77.4000 237° Southwest 213 245 2,700 -780 Descending Potomac TRACON
11:20AM 38.7667 -77.4333 322° Northwest 185 213 2,000 -720 Descending Potomac TRACON